createdAt,value
2023-02-16T00:00:11.930Z,17.43
2023-02-16T00:00:25.946Z,17.43
2023-02-16T00:00:39.949Z,17.44
2023-02-16T00:00:53.952Z,17.44
2023-02-16T00:01:07.935Z,17.43
2023-02-16T00:01:21.930Z,17.43
2023-02-16T00:01:36.031Z,17.44
2023-02-16T00:01:50.006Z,17.41
2023-02-16T00:02:04.017Z,17.43
2023-02-16T00:02:18.116Z,17.44
2023-02-16T00:02:32.203Z,17.41
2023-02-16T00:02:46.460Z,17.43
2023-02-16T00:03:00.492Z,17.43
2023-02-16T00:03:14.551Z,17.44
2023-02-16T00:03:28.688Z,17.41
2023-02-16T00:03:42.807Z,17.43
2023-02-16T00:03:56.847Z,17.41
2023-02-16T00:04:10.840Z,17.44
2023-02-16T00:04:24.837Z,17.43
2023-02-16T00:04:38.829Z,17.44
2023-02-16T00:04:52.818Z,17.43
2023-02-16T00:05:06.811Z,17.44
2023-02-16T00:05:20.805Z,17.43
2023-02-16T00:05:34.817Z,17.43
2023-02-16T00:05:48.827Z,17.41
2023-02-16T00:06:02.852Z,17.43
2023-02-16T00:06:30.819Z,17.43
2023-02-16T00:06:44.796Z,17.41
2023-02-16T00:06:58.813Z,17.43
2023-02-16T00:07:12.811Z,17.41
2023-02-16T00:07:26.796Z,17.43
2023-02-16T00:07:40.784Z,17.41
2023-02-16T00:07:54.771Z,17.41
2023-02-16T00:08:08.767Z,17.40
2023-02-16T00:08:22.751Z,17.41
2023-02-16T00:08:36.744Z,17.41
2023-02-16T00:08:50.739Z,17.41
2023-02-16T00:09:04.745Z,17.41
2023-02-16T00:09:18.744Z,17.41
2023-02-16T00:09:32.731Z,17.41
2023-02-16T00:09:46.732Z,17.41
2023-02-16T00:10:00.739Z,17.40
2023-02-16T00:10:14.742Z,17.41
2023-02-16T00:10:28.727Z,17.40
2023-02-16T00:10:42.722Z,17.40
2023-02-16T00:11:12.090Z,17.41
2023-02-16T00:11:24.578Z,17.40
2023-02-16T00:11:38.563Z,17.40
2023-02-16T00:11:52.564Z,17.40
2023-02-16T00:12:07.520Z,17.40
2023-02-16T00:12:21.520Z,17.38
2023-02-16T00:12:35.557Z,17.38
2023-02-16T00:12:49.609Z,17.36
2023-02-16T00:13:03.591Z,17.36
2023-02-16T00:13:17.605Z,17.36
2023-02-16T00:13:31.588Z,17.38
2023-02-16T00:13:45.617Z,17.38
2023-02-16T00:13:59.609Z,17.36
2023-02-16T00:14:13.607Z,17.38
2023-02-16T00:14:27.592Z,17.36
2023-02-16T00:14:41.607Z,17.36
2023-02-16T00:14:55.615Z,17.36
2023-02-16T00:15:09.619Z,17.36
2023-02-16T00:15:23.593Z,17.38
2023-02-16T00:15:37.648Z,17.38
2023-02-16T00:15:51.749Z,17.36
2023-02-16T00:16:19.856Z,17.36
2023-02-16T00:16:33.861Z,17.38
2023-02-16T00:16:47.862Z,17.35
2023-02-16T00:17:01.887Z,17.38
2023-02-16T00:17:15.903Z,17.35
2023-02-16T00:17:29.936Z,17.35
2023-02-16T00:17:43.934Z,17.35
2023-02-16T00:17:57.937Z,17.35
2023-02-16T00:18:11.924Z,17.35
2023-02-16T00:18:25.932Z,17.36
2023-02-16T00:18:39.918Z,17.35
2023-02-16T00:18:53.924Z,17.35
2023-02-16T00:19:07.923Z,17.35
2023-02-16T00:19:21.915Z,17.35
2023-02-16T00:19:35.905Z,17.35
2023-02-16T00:19:49.909Z,17.35
2023-02-16T00:20:03.886Z,17.35
2023-02-16T00:20:17.870Z,17.35
2023-02-16T00:20:31.860Z,17.33
2023-02-16T00:20:45.841Z,17.35
2023-02-16T00:20:59.824Z,17.33
2023-02-16T00:21:13.815Z,17.33
2023-02-16T00:21:27.806Z,17.35
2023-02-16T00:21:41.787Z,17.35
2023-02-16T00:21:55.775Z,17.35
2023-02-16T00:22:09.777Z,17.35
2023-02-16T00:22:23.770Z,17.33
2023-02-16T00:22:37.769Z,17.35
2023-02-16T00:22:51.749Z,17.33
2023-02-16T00:23:05.764Z,17.35
2023-02-16T00:23:19.749Z,17.33
2023-02-16T00:23:33.752Z,17.33
2023-02-16T00:23:47.744Z,17.35
2023-02-16T00:24:01.742Z,17.33
2023-02-16T00:24:29.714Z,17.33
2023-02-16T00:24:43.706Z,17.33
2023-02-16T00:24:57.730Z,17.32
2023-02-16T00:25:11.711Z,17.33
2023-02-16T00:25:25.732Z,17.33
2023-02-16T00:25:39.712Z,17.32
2023-02-16T00:25:53.710Z,17.33
2023-02-16T00:26:07.913Z,17.33
2023-02-16T00:26:21.912Z,17.35
2023-02-16T00:26:35.899Z,17.35
2023-02-16T00:26:49.895Z,17.33
2023-02-16T00:27:03.866Z,17.33
2023-02-16T00:27:18.067Z,17.33
2023-02-16T00:27:32.049Z,17.33
2023-02-16T00:27:46.041Z,17.32
2023-02-16T00:28:00.020Z,17.33
2023-02-16T00:28:14.017Z,17.33
2023-02-16T00:28:28.237Z,17.33
2023-02-16T00:28:42.244Z,17.33
2023-02-16T00:29:10.205Z,17.33
2023-02-16T00:29:24.202Z,17.33
2023-02-16T00:29:38.207Z,17.35
2023-02-16T00:29:52.208Z,17.33
2023-02-16T00:30:06.254Z,17.33
2023-02-16T00:30:20.308Z,17.35
2023-02-16T00:30:34.442Z,17.33
2023-02-16T00:30:48.584Z,17.32
2023-02-16T00:31:03.237Z,17.32
2023-02-16T00:31:17.524Z,17.32
2023-02-16T00:31:31.676Z,17.32
2023-02-16T00:31:45.840Z,17.32
2023-02-16T00:32:00.114Z,17.32
2023-02-16T00:32:14.337Z,17.32
2023-02-16T00:32:28.497Z,17.32
2023-02-16T00:32:42.531Z,17.30
2023-02-16T00:32:56.531Z,17.30
2023-02-16T00:33:10.516Z,17.30
2023-02-16T00:33:24.503Z,17.30
2023-02-16T00:33:38.494Z,17.29
2023-02-16T00:33:52.488Z,17.30
2023-02-16T00:34:20.440Z,17.30
2023-02-16T00:34:34.452Z,17.30
2023-02-16T00:34:48.440Z,17.30
2023-02-16T00:35:02.448Z,17.30
2023-02-16T00:35:16.448Z,17.30
2023-02-16T00:35:30.503Z,17.29
2023-02-16T00:35:44.501Z,17.29
2023-02-16T00:35:58.501Z,17.30
2023-02-16T00:36:12.517Z,17.29
2023-02-16T00:36:26.498Z,17.29
2023-02-16T00:36:40.577Z,17.29
2023-02-16T00:36:54.568Z,17.30
2023-02-16T00:37:08.560Z,17.32
2023-02-16T00:37:22.572Z,17.30
2023-02-16T00:37:36.578Z,17.30
2023-02-16T00:37:50.678Z,17.30
2023-02-16T00:38:04.671Z,17.30
2023-02-16T00:38:18.685Z,17.30
2023-02-16T00:38:32.678Z,17.29
2023-02-16T00:39:00.648Z,17.29
2023-02-16T00:39:14.626Z,17.29
2023-02-16T00:39:28.624Z,17.29
2023-02-16T00:39:42.617Z,17.30
2023-02-16T00:39:56.627Z,17.30
2023-02-16T00:40:10.620Z,17.28
2023-02-16T00:40:24.611Z,17.29
2023-02-16T00:40:38.593Z,17.28
2023-02-16T00:40:52.651Z,17.28
2023-02-16T00:41:06.799Z,17.29
2023-02-16T00:41:20.819Z,17.28
2023-02-16T00:41:34.855Z,17.28
2023-02-16T00:41:48.949Z,17.29
2023-02-16T00:42:03.005Z,17.28
2023-02-16T00:42:31.026Z,17.28
2023-02-16T00:42:45.012Z,17.28
2023-02-16T00:42:58.992Z,17.28
2023-02-16T00:43:13.013Z,17.28
2023-02-16T00:43:26.994Z,17.28
2023-02-16T00:43:40.989Z,17.28
2023-02-16T00:43:54.978Z,17.26
2023-02-16T00:44:08.971Z,17.28
2023-02-16T00:44:22.954Z,17.28
2023-02-16T00:44:36.948Z,17.26
2023-02-16T00:44:50.941Z,17.26
2023-02-16T00:45:04.940Z,17.26
2023-02-16T00:45:18.929Z,17.28
2023-02-16T00:45:32.920Z,17.26
2023-02-16T00:45:46.898Z,17.26
2023-02-16T00:46:00.906Z,17.26
2023-02-16T00:46:14.958Z,17.26
2023-02-16T00:46:29.027Z,17.28
2023-02-16T00:46:43.046Z,17.26
2023-02-16T00:47:11.144Z,17.26
2023-02-16T00:47:25.159Z,17.26
2023-02-16T00:47:39.146Z,17.28
2023-02-16T00:47:53.162Z,17.26
2023-02-16T00:48:07.158Z,17.26
2023-02-16T00:48:21.168Z,17.28
2023-02-16T00:48:35.162Z,17.25
2023-02-16T00:48:49.175Z,17.25
2023-02-16T00:49:03.145Z,17.26
2023-02-16T00:49:17.140Z,17.26
2023-02-16T00:49:31.123Z,17.25
2023-02-16T00:49:45.113Z,17.26
2023-02-16T00:49:59.098Z,17.26
2023-02-16T00:50:13.100Z,17.26
2023-02-16T00:50:27.088Z,17.25
2023-02-16T00:50:41.079Z,17.25
2023-02-16T00:50:55.074Z,17.26
2023-02-16T00:51:24.792Z,17.26
2023-02-16T00:51:26.172Z,17.26
2023-02-16T00:51:37.910Z,17.26
2023-02-16T00:51:51.940Z,17.23
2023-02-16T00:52:19.900Z,17.25
2023-02-16T00:52:33.886Z,17.26
2023-02-16T00:52:47.887Z,17.25
2023-02-16T00:53:01.865Z,17.25
2023-02-16T00:53:15.878Z,17.25
2023-02-16T00:53:29.860Z,17.25
2023-02-16T00:53:43.848Z,17.25
2023-02-16T00:53:57.844Z,17.25
2023-02-16T00:54:11.852Z,17.25
2023-02-16T00:54:25.837Z,17.23
2023-02-16T00:54:39.830Z,17.23
2023-02-16T00:54:53.850Z,17.25
2023-02-16T00:55:07.842Z,17.25
2023-02-16T00:55:21.832Z,17.23
2023-02-16T00:55:35.826Z,17.25
2023-02-16T00:55:49.807Z,17.25
2023-02-16T00:56:03.812Z,17.25
2023-02-16T00:56:17.799Z,17.22
2023-02-16T00:56:31.790Z,17.25
2023-02-16T00:56:59.770Z,17.23
2023-02-16T00:57:13.756Z,17.23
2023-02-16T00:57:27.748Z,17.23
2023-02-16T00:57:41.752Z,17.23
2023-02-16T00:57:55.747Z,17.25
2023-02-16T00:58:09.777Z,17.23
2023-02-16T00:58:23.813Z,17.23
2023-02-16T00:58:37.796Z,17.23
2023-02-16T00:58:51.783Z,17.23
2023-02-16T00:59:05.774Z,17.23
2023-02-16T00:59:19.763Z,17.25
2023-02-16T00:59:33.762Z,17.23
2023-02-16T00:59:47.767Z,17.22
2023-02-16T01:00:01.785Z,17.20
2023-02-16T01:00:15.815Z,17.22
2023-02-16T01:00:29.804Z,17.23
2023-02-16T01:00:43.791Z,17.23
2023-02-16T01:00:57.791Z,17.22
2023-02-16T01:01:11.876Z,17.23
2023-02-16T01:01:39.897Z,17.23
2023-02-16T01:01:53.980Z,17.23
2023-02-16T01:02:08.047Z,17.23
2023-02-16T01:02:22.032Z,17.22
2023-02-16T01:02:36.032Z,17.22
2023-02-16T01:02:50.034Z,17.22
2023-02-16T01:03:04.049Z,17.22
2023-02-16T01:03:18.041Z,17.23
2023-02-16T01:03:32.037Z,17.22
2023-02-16T01:03:46.017Z,17.22
2023-02-16T01:04:00.016Z,17.20
2023-02-16T01:04:14.068Z,17.22
2023-02-16T01:04:28.149Z,17.22
2023-02-16T01:04:42.296Z,17.20
2023-02-16T01:04:56.361Z,17.22
2023-02-16T01:05:10.394Z,17.22
2023-02-16T01:05:24.396Z,17.20
2023-02-16T01:05:38.372Z,17.20
2023-02-16T01:05:52.362Z,17.22
2023-02-16T01:06:20.343Z,17.20
2023-02-16T01:06:34.320Z,17.20
2023-02-16T01:06:48.309Z,17.20
2023-02-16T01:07:02.311Z,17.18
2023-02-16T01:07:16.305Z,17.20
2023-02-16T01:07:30.291Z,17.20
2023-02-16T01:07:44.287Z,17.20
2023-02-16T01:07:58.274Z,17.20
2023-02-16T01:08:12.263Z,17.22
2023-02-16T01:08:26.264Z,17.20
2023-02-16T01:08:40.255Z,17.20
2023-02-16T01:08:54.240Z,17.20
2023-02-16T01:09:08.241Z,17.20
2023-02-16T01:09:22.229Z,17.18
2023-02-16T01:09:50.192Z,17.20
2023-02-16T01:10:04.210Z,17.20
2023-02-16T01:10:18.195Z,17.20
2023-02-16T01:10:32.192Z,17.20
2023-02-16T01:10:46.215Z,17.20
2023-02-16T01:11:00.453Z,17.20
2023-02-16T01:11:14.739Z,17.22
2023-02-16T01:11:29.330Z,17.20
2023-02-16T01:11:43.329Z,17.22
2023-02-16T01:11:57.318Z,17.20
2023-02-16T01:12:11.305Z,17.20
2023-02-16T01:12:25.349Z,17.20
2023-02-16T01:12:39.372Z,17.20
2023-02-16T01:12:53.401Z,17.20
2023-02-16T01:13:07.417Z,17.18
2023-02-16T01:13:21.439Z,17.20
2023-02-16T01:13:35.486Z,17.18
2023-02-16T01:13:49.530Z,17.20
2023-02-16T01:14:03.595Z,17.20
2023-02-16T01:14:17.580Z,17.22
2023-02-16T01:14:31.573Z,17.18
2023-02-16T01:14:59.554Z,17.17
2023-02-16T01:15:13.550Z,17.18
2023-02-16T01:15:27.600Z,17.17
2023-02-16T01:15:41.658Z,17.17
2023-02-16T01:15:55.755Z,17.17
2023-02-16T01:16:09.930Z,17.18
2023-02-16T01:16:23.955Z,17.15
2023-02-16T01:16:37.952Z,17.18
2023-02-16T01:16:51.948Z,17.17
2023-02-16T01:17:05.928Z,17.18
2023-02-16T01:17:19.936Z,17.15
2023-02-16T01:17:33.936Z,17.17
2023-02-16T01:17:47.935Z,17.17
2023-02-16T01:18:01.929Z,17.17
2023-02-16T01:18:15.994Z,17.15
2023-02-16T01:18:29.998Z,17.18
2023-02-16T01:18:43.989Z,17.15
2023-02-16T01:18:57.970Z,17.17
2023-02-16T01:19:11.983Z,17.15
2023-02-16T01:19:39.966Z,17.14
2023-02-16T01:19:53.966Z,17.15
2023-02-16T01:20:07.950Z,17.15
2023-02-16T01:20:21.954Z,17.17
2023-02-16T01:20:35.934Z,17.15
2023-02-16T01:20:49.922Z,17.15
2023-02-16T01:21:04.309Z,17.14
2023-02-16T01:21:18.426Z,17.15
2023-02-16T01:21:32.417Z,17.14
2023-02-16T01:21:46.406Z,17.17
2023-02-16T01:22:00.389Z,17.14
2023-02-16T01:22:14.371Z,17.15
2023-02-16T01:22:28.355Z,17.14
2023-02-16T01:22:42.342Z,17.15
2023-02-16T01:22:56.352Z,17.14
2023-02-16T01:23:10.348Z,17.15
2023-02-16T01:23:24.330Z,17.15
2023-02-16T01:23:38.320Z,17.17
2023-02-16T01:23:52.329Z,17.17
2023-02-16T01:24:20.315Z,17.15
2023-02-16T01:24:34.298Z,17.17
2023-02-16T01:24:48.333Z,17.17
2023-02-16T01:25:02.334Z,17.15
2023-02-16T01:25:16.339Z,17.15
2023-02-16T01:25:30.325Z,17.15
2023-02-16T01:25:44.315Z,17.17
2023-02-16T01:25:58.296Z,17.15
2023-02-16T01:26:12.285Z,17.15
2023-02-16T01:26:26.282Z,17.15
2023-02-16T01:26:40.275Z,17.15
2023-02-16T01:26:54.313Z,17.15
2023-02-16T01:27:08.310Z,17.15
2023-02-16T01:27:23.167Z,17.15
2023-02-16T01:27:37.172Z,17.15
2023-02-16T01:27:51.162Z,17.17
2023-02-16T01:28:05.138Z,17.15
2023-02-16T01:28:19.139Z,17.15
2023-02-16T01:28:33.155Z,17.14
2023-02-16T01:28:47.146Z,17.14
2023-02-16T01:29:01.133Z,17.15
2023-02-16T01:29:29.108Z,17.14
2023-02-16T01:29:43.191Z,17.15
2023-02-16T01:29:57.204Z,17.14
2023-02-16T01:30:11.275Z,17.14
2023-02-16T01:30:25.383Z,17.15
2023-02-16T01:30:39.422Z,17.14
2023-02-16T01:30:53.539Z,17.14
2023-02-16T01:31:08.013Z,17.14
2023-02-16T01:31:22.147Z,17.13
2023-02-16T01:31:36.249Z,17.14
2023-02-16T01:31:50.538Z,17.14
2023-02-16T01:32:04.655Z,17.15
2023-02-16T01:32:19.040Z,17.13
2023-02-16T01:32:33.125Z,17.14
2023-02-16T01:33:01.086Z,17.13
2023-02-16T01:33:15.080Z,17.14
2023-02-16T01:33:29.087Z,17.13
2023-02-16T01:33:43.122Z,17.13
2023-02-16T01:33:57.101Z,17.14
2023-02-16T01:34:11.096Z,17.13
2023-02-16T01:34:25.079Z,17.13
2023-02-16T01:34:39.077Z,17.13
2023-02-16T01:34:53.050Z,17.14
2023-02-16T01:35:07.033Z,17.13
2023-02-16T01:35:21.021Z,17.13
2023-02-16T01:35:35.061Z,17.11
2023-02-16T01:35:49.053Z,17.13
2023-02-16T01:36:03.038Z,17.11
2023-02-16T01:36:17.082Z,17.11
2023-02-16T01:36:31.074Z,17.11
2023-02-16T01:36:45.088Z,17.11
2023-02-16T01:36:59.093Z,17.13
2023-02-16T01:37:13.111Z,17.11
2023-02-16T01:37:41.069Z,17.13
2023-02-16T01:37:55.067Z,17.11
2023-02-16T01:38:09.059Z,17.11
2023-02-16T01:38:23.074Z,17.10
2023-02-16T01:38:37.057Z,17.11
2023-02-16T01:38:51.048Z,17.11
2023-02-16T01:39:05.043Z,17.11
2023-02-16T01:39:19.066Z,17.11
2023-02-16T01:39:33.050Z,17.11
2023-02-16T01:39:47.036Z,17.10
2023-02-16T01:40:01.025Z,17.11
2023-02-16T01:40:15.015Z,17.08
2023-02-16T01:40:29.002Z,17.10
2023-02-16T01:40:42.994Z,17.10
2023-02-16T01:40:56.989Z,17.11
2023-02-16T01:41:10.975Z,17.10
2023-02-16T01:41:24.970Z,17.10
2023-02-16T01:41:38.979Z,17.10
2023-02-16T01:41:53.014Z,17.10
2023-02-16T01:42:21.006Z,17.10
2023-02-16T01:42:34.991Z,17.10
2023-02-16T01:42:48.974Z,17.08
2023-02-16T01:43:02.964Z,17.08
2023-02-16T01:43:16.952Z,17.10
2023-02-16T01:43:30.944Z,17.08
2023-02-16T01:43:44.932Z,17.10
2023-02-16T01:43:58.953Z,17.08
2023-02-16T01:44:12.932Z,17.10
2023-02-16T01:44:26.921Z,17.10
2023-02-16T01:44:40.909Z,17.10
2023-02-16T01:44:54.910Z,17.08
2023-02-16T01:45:08.893Z,17.08
2023-02-16T01:45:22.889Z,17.08
2023-02-16T01:45:36.866Z,17.08
2023-02-16T01:45:50.865Z,17.07
2023-02-16T01:46:04.918Z,17.10
2023-02-16T01:46:19.028Z,17.08
2023-02-16T01:46:33.075Z,17.08
2023-02-16T01:47:01.076Z,17.10
2023-02-16T01:47:15.077Z,17.08
2023-02-16T01:47:29.065Z,17.10
2023-02-16T01:47:43.082Z,17.10
2023-02-16T01:47:57.081Z,17.10
2023-02-16T01:48:11.073Z,17.07
2023-02-16T01:48:25.063Z,17.10
2023-02-16T01:48:39.220Z,17.08
2023-02-16T01:48:53.208Z,17.08
2023-02-16T01:49:07.202Z,17.08
2023-02-16T01:49:22.635Z,17.10
2023-02-16T01:49:34.052Z,17.08
2023-02-16T01:49:48.069Z,17.08
2023-02-16T01:50:03.379Z,17.08
2023-02-16T01:50:15.168Z,17.08
2023-02-16T01:50:29.153Z,17.08
2023-02-16T01:50:43.157Z,17.08
2023-02-16T01:50:57.167Z,17.07
2023-02-16T01:51:11.153Z,17.10
2023-02-16T01:51:25.151Z,17.08
2023-02-16T01:51:39.126Z,17.08
2023-02-16T01:51:53.117Z,17.07
2023-02-16T01:52:07.101Z,17.07
2023-02-16T01:52:21.117Z,17.06
2023-02-16T01:52:35.103Z,17.08
2023-02-16T01:52:49.105Z,17.07
2023-02-16T01:53:03.104Z,17.07
2023-02-16T01:53:17.097Z,17.06
2023-02-16T01:53:31.099Z,17.08
2023-02-16T01:53:45.113Z,17.07
2023-02-16T01:53:59.179Z,17.07
2023-02-16T01:54:13.179Z,17.07
2023-02-16T01:54:27.167Z,17.08
2023-02-16T01:54:41.160Z,17.07
2023-02-16T01:55:09.127Z,17.08
2023-02-16T01:55:23.117Z,17.08
2023-02-16T01:55:37.115Z,17.07
2023-02-16T01:55:51.114Z,17.07
2023-02-16T01:56:05.148Z,17.06
2023-02-16T01:56:19.136Z,17.07
2023-02-16T01:56:33.132Z,17.07
2023-02-16T01:56:47.115Z,17.08
2023-02-16T01:57:01.128Z,17.07
2023-02-16T01:57:15.141Z,17.07
2023-02-16T01:57:29.151Z,17.06
2023-02-16T01:57:43.188Z,17.07
2023-02-16T01:57:57.188Z,17.06
2023-02-16T01:58:11.173Z,17.07
2023-02-16T01:58:25.154Z,17.06
2023-02-16T01:58:39.136Z,17.06
2023-02-16T01:58:53.131Z,17.04
2023-02-16T01:59:21.095Z,17.04
2023-02-16T01:59:35.123Z,17.04
2023-02-16T01:59:49.137Z,17.06
2023-02-16T02:00:03.152Z,17.04
2023-02-16T02:00:17.176Z,17.06
2023-02-16T02:00:31.177Z,17.06
2023-02-16T02:00:45.168Z,17.06
2023-02-16T02:00:59.151Z,17.04
2023-02-16T02:01:13.182Z,17.06
2023-02-16T02:01:27.206Z,17.04
2023-02-16T02:01:41.261Z,17.04
2023-02-16T02:01:55.311Z,17.07
2023-02-16T02:02:09.333Z,17.06
2023-02-16T02:02:23.513Z,17.04
2023-02-16T02:02:37.607Z,17.06
2023-02-16T02:02:51.676Z,17.04
2023-02-16T02:03:05.760Z,17.04
2023-02-16T02:03:19.756Z,17.04
2023-02-16T02:03:33.773Z,17.04
2023-02-16T02:03:47.792Z,17.04
2023-02-16T02:04:01.777Z,17.06
2023-02-16T02:04:29.738Z,17.06
2023-02-16T02:04:43.724Z,17.06
2023-02-16T02:04:57.718Z,17.03
2023-02-16T02:05:11.737Z,17.04
2023-02-16T02:05:25.784Z,17.06
2023-02-16T02:05:39.772Z,17.04
2023-02-16T02:05:53.776Z,17.04
2023-02-16T02:06:07.776Z,17.04
2023-02-16T02:06:21.767Z,17.04
2023-02-16T02:06:35.752Z,17.06
2023-02-16T02:06:49.749Z,17.03
2023-02-16T02:07:03.746Z,17.06
2023-02-16T02:07:17.798Z,17.04
2023-02-16T02:07:31.788Z,17.06
2023-02-16T02:07:45.784Z,17.03
2023-02-16T02:07:59.774Z,17.06
2023-02-16T02:08:13.768Z,17.03
2023-02-16T02:08:27.779Z,17.06
2023-02-16T02:08:41.915Z,17.04
2023-02-16T02:08:55.907Z,17.06
2023-02-16T02:09:09.942Z,17.03
2023-02-16T02:09:23.961Z,17.04
2023-02-16T02:09:37.950Z,17.04
2023-02-16T02:09:51.951Z,17.04
2023-02-16T02:10:05.951Z,17.04
2023-02-16T02:10:19.949Z,17.04
2023-02-16T02:10:33.950Z,17.03
2023-02-16T02:10:47.934Z,17.04
2023-02-16T02:11:02.161Z,17.03
2023-02-16T02:11:16.283Z,17.03
2023-02-16T02:11:30.271Z,17.03
2023-02-16T02:11:44.250Z,17.03
2023-02-16T02:11:58.240Z,17.03
2023-02-16T02:12:12.225Z,17.03
2023-02-16T02:12:40.179Z,17.03
2023-02-16T02:12:54.295Z,17.00
2023-02-16T02:13:08.316Z,17.03
2023-02-16T02:13:22.369Z,17.00
2023-02-16T02:13:36.356Z,17.03
2023-02-16T02:13:50.382Z,17.03
2023-02-16T02:14:04.373Z,17.03
2023-02-16T02:14:18.382Z,16.99
2023-02-16T02:14:32.371Z,17.03
2023-02-16T02:14:46.382Z,17.00
2023-02-16T02:15:00.397Z,17.03
2023-02-16T02:15:14.396Z,16.99
2023-02-16T02:15:28.404Z,17.00
2023-02-16T02:15:42.457Z,16.99
2023-02-16T02:15:56.536Z,17.00
2023-02-16T02:16:10.600Z,16.99
2023-02-16T02:16:24.723Z,17.00
2023-02-16T02:16:38.772Z,17.00
2023-02-16T02:16:52.795Z,16.99
2023-02-16T02:17:20.743Z,16.99
2023-02-16T02:17:34.735Z,16.99
2023-02-16T02:17:48.732Z,16.99
2023-02-16T02:18:02.715Z,16.99
2023-02-16T02:18:16.712Z,16.99
2023-02-16T02:18:30.705Z,16.99
2023-02-16T02:18:44.689Z,16.99
2023-02-16T02:18:58.695Z,16.99
2023-02-16T02:19:12.678Z,16.99
2023-02-16T02:19:26.662Z,16.99
2023-02-16T02:19:40.645Z,17.00
2023-02-16T02:19:54.626Z,16.98
2023-02-16T02:20:08.622Z,17.00
2023-02-16T02:20:22.617Z,16.99
2023-02-16T02:20:36.593Z,16.98
2023-02-16T02:20:50.607Z,17.00
2023-02-16T02:21:04.887Z,16.99
2023-02-16T02:21:18.996Z,16.98
2023-02-16T02:21:33.028Z,17.00
2023-02-16T02:22:01.026Z,17.00
2023-02-16T02:22:15.010Z,16.99
2023-02-16T02:22:29.014Z,16.99
2023-02-16T02:22:43.006Z,16.99
2023-02-16T02:22:56.997Z,16.99
2023-02-16T02:23:10.984Z,16.99
2023-02-16T02:23:24.986Z,16.99
2023-02-16T02:23:38.967Z,16.98
2023-02-16T02:23:52.956Z,16.99
2023-02-16T02:24:06.950Z,16.99
2023-02-16T02:24:20.976Z,16.99
2023-02-16T02:24:34.959Z,16.98
2023-02-16T02:24:48.950Z,16.98
2023-02-16T02:25:02.937Z,16.98
2023-02-16T02:25:16.947Z,16.98
2023-02-16T02:25:30.938Z,16.99
2023-02-16T02:25:44.942Z,16.98
2023-02-16T02:25:58.922Z,16.98
2023-02-16T02:26:12.939Z,16.98
2023-02-16T02:26:26.929Z,16.98
2023-02-16T02:26:40.947Z,16.99
2023-02-16T02:26:54.958Z,16.99
2023-02-16T02:27:08.946Z,16.99
2023-02-16T02:27:22.923Z,16.96
2023-02-16T02:27:36.914Z,16.98
2023-02-16T02:27:50.899Z,16.98
2023-02-16T02:28:04.894Z,16.96
2023-02-16T02:28:18.902Z,16.95
2023-02-16T02:28:32.907Z,16.98
2023-02-16T02:28:46.895Z,16.96
2023-02-16T02:29:00.882Z,16.96
2023-02-16T02:29:14.875Z,16.95
2023-02-16T02:29:28.883Z,16.96
2023-02-16T02:29:42.886Z,16.96
2023-02-16T02:30:10.931Z,16.98
2023-02-16T02:30:25.075Z,16.96
2023-02-16T02:30:39.182Z,16.98
2023-02-16T02:30:53.252Z,16.98
2023-02-16T02:31:07.807Z,16.98
2023-02-16T02:31:22.222Z,16.96
2023-02-16T02:31:36.392Z,16.96
2023-02-16T02:31:50.627Z,16.96
2023-02-16T02:32:04.845Z,16.96
2023-02-16T02:32:18.961Z,16.98
2023-02-16T02:32:32.995Z,16.96
2023-02-16T02:32:46.983Z,16.98
2023-02-16T02:33:00.980Z,16.96
2023-02-16T02:33:14.961Z,16.96
2023-02-16T02:33:28.954Z,16.96
2023-02-16T02:33:42.939Z,16.96
2023-02-16T02:33:56.922Z,16.95
2023-02-16T02:34:10.942Z,16.98
2023-02-16T02:34:24.942Z,16.98
2023-02-16T02:34:38.923Z,16.98
2023-02-16T02:34:52.924Z,16.95
2023-02-16T02:35:20.872Z,16.96
2023-02-16T02:35:34.861Z,16.98
2023-02-16T02:35:48.869Z,16.96
2023-02-16T02:36:02.861Z,16.98
2023-02-16T02:36:16.875Z,16.96
2023-02-16T02:36:30.877Z,16.96
2023-02-16T02:36:44.869Z,16.96
2023-02-16T02:36:58.858Z,16.96
2023-02-16T02:37:12.865Z,16.96
2023-02-16T02:37:26.852Z,16.96
2023-02-16T02:37:40.849Z,16.96
2023-02-16T02:37:54.833Z,16.98
2023-02-16T02:38:08.836Z,16.98
2023-02-16T02:38:22.823Z,16.96
2023-02-16T02:38:36.814Z,16.96
2023-02-16T02:38:50.806Z,16.96
2023-02-16T02:39:04.804Z,16.95
2023-02-16T02:39:18.799Z,16.98
2023-02-16T02:39:32.808Z,16.95
2023-02-16T02:40:00.745Z,16.95
2023-02-16T02:40:14.724Z,16.95
2023-02-16T02:40:28.708Z,16.95
2023-02-16T02:40:42.705Z,16.95
2023-02-16T02:40:56.714Z,16.95
2023-02-16T02:41:10.698Z,16.95
2023-02-16T02:41:24.687Z,16.95
2023-02-16T02:41:38.687Z,16.95
2023-02-16T02:41:52.677Z,16.93
2023-02-16T02:42:06.679Z,16.93
2023-02-16T02:42:20.668Z,16.92
2023-02-16T02:42:34.681Z,16.95
2023-02-16T02:42:48.673Z,16.93
2023-02-16T02:43:02.662Z,16.93
2023-02-16T02:43:16.671Z,16.92
2023-02-16T02:43:30.663Z,16.95
2023-02-16T02:43:44.654Z,16.93
2023-02-16T02:43:58.635Z,16.93
2023-02-16T02:44:12.636Z,16.92
2023-02-16T02:44:40.594Z,16.93
2023-02-16T02:44:54.588Z,16.92
2023-02-16T02:45:08.580Z,16.90
2023-02-16T02:45:22.580Z,16.93
2023-02-16T02:45:36.575Z,16.93
2023-02-16T02:45:50.569Z,16.95
2023-02-16T02:46:04.587Z,16.93
2023-02-16T02:46:18.612Z,16.93
2023-02-16T02:46:32.702Z,16.93
2023-02-16T02:46:46.747Z,16.93
2023-02-16T02:47:00.823Z,16.92
2023-02-16T02:47:14.816Z,16.95
2023-02-16T02:47:28.815Z,16.92
2023-02-16T02:47:42.831Z,16.95
2023-02-16T02:48:10.814Z,16.93
2023-02-16T02:48:24.801Z,16.92
2023-02-16T02:48:38.781Z,16.92
2023-02-16T02:48:52.782Z,16.92
2023-02-16T02:49:06.766Z,16.93
2023-02-16T02:49:20.782Z,16.93
2023-02-16T02:49:34.787Z,16.90
2023-02-16T02:49:48.779Z,16.90
2023-02-16T02:50:02.792Z,16.92
2023-02-16T02:50:16.794Z,16.90
2023-02-16T02:50:30.775Z,16.92
2023-02-16T02:50:44.752Z,16.92
2023-02-16T02:50:58.734Z,16.92
2023-02-16T02:51:12.795Z,16.90
2023-02-16T02:51:26.780Z,16.92
2023-02-16T02:51:40.762Z,16.90
2023-02-16T02:51:54.770Z,16.90
2023-02-16T02:52:08.753Z,16.90
2023-02-16T02:52:22.777Z,16.92
2023-02-16T02:52:50.749Z,16.90
2023-02-16T02:53:04.730Z,16.90
2023-02-16T02:53:18.724Z,16.90
2023-02-16T02:53:32.716Z,16.90
2023-02-16T02:53:46.707Z,16.90
2023-02-16T02:54:00.705Z,16.89
2023-02-16T02:54:14.728Z,16.89
2023-02-16T02:54:28.716Z,16.90
2023-02-16T02:54:42.720Z,16.90
2023-02-16T02:54:56.730Z,16.90
2023-02-16T02:55:10.720Z,16.90
2023-02-16T02:55:24.704Z,16.89
2023-02-16T02:55:38.696Z,16.90
2023-02-16T02:55:52.690Z,16.92
2023-02-16T02:56:06.692Z,16.90
2023-02-16T02:56:20.680Z,16.89
2023-02-16T02:56:34.679Z,16.90
2023-02-16T02:56:48.670Z,16.90
2023-02-16T02:57:02.722Z,16.92
2023-02-16T02:57:30.704Z,16.92
2023-02-16T02:57:44.711Z,16.92
2023-02-16T02:57:58.690Z,16.92
2023-02-16T02:58:12.673Z,16.92
2023-02-16T02:58:26.676Z,16.92
2023-02-16T02:58:40.652Z,16.90
2023-02-16T02:58:54.640Z,16.90
2023-02-16T02:59:08.641Z,16.89
2023-02-16T02:59:22.644Z,16.90
2023-02-16T02:59:36.629Z,16.90
2023-02-16T02:59:50.634Z,16.89
2023-02-16T03:00:04.620Z,16.89
2023-02-16T03:00:18.621Z,16.90
2023-02-16T03:00:32.763Z,16.92
2023-02-16T03:00:46.899Z,16.90
2023-02-16T03:01:01.067Z,16.89
2023-02-16T03:01:15.187Z,16.90
2023-02-16T03:01:29.306Z,16.89
2023-02-16T03:01:43.341Z,16.89
2023-02-16T03:01:57.416Z,16.88
2023-02-16T03:02:11.496Z,16.89
2023-02-16T03:02:39.443Z,16.89
2023-02-16T03:02:53.435Z,16.89
2023-02-16T03:03:07.410Z,16.89
2023-02-16T03:03:21.419Z,16.88
2023-02-16T03:03:35.411Z,16.88
2023-02-16T03:03:49.403Z,16.88
2023-02-16T03:04:03.388Z,16.88
2023-02-16T03:04:17.380Z,16.89
2023-02-16T03:04:31.473Z,16.88
2023-02-16T03:04:45.476Z,16.88
2023-02-16T03:04:59.454Z,16.88
2023-02-16T03:05:13.487Z,16.86
2023-02-16T03:05:27.472Z,16.88
2023-02-16T03:05:41.463Z,16.86
2023-02-16T03:05:55.466Z,16.88
2023-02-16T03:06:09.452Z,16.89
2023-02-16T03:06:23.456Z,16.89
2023-02-16T03:06:37.434Z,16.89
2023-02-16T03:06:51.416Z,16.89
2023-02-16T03:07:19.362Z,16.89
2023-02-16T03:07:33.349Z,16.88
2023-02-16T03:07:47.384Z,16.88
2023-02-16T03:08:01.363Z,16.88
2023-02-16T03:08:15.370Z,16.88
2023-02-16T03:08:29.365Z,16.88
2023-02-16T03:08:43.361Z,16.89
2023-02-16T03:08:57.365Z,16.88
2023-02-16T03:09:11.391Z,16.89